createdAt,value
2023-04-10T00:00:12.037Z,99975.28
2023-04-10T00:02:41.302Z,99972.75
2023-04-10T00:05:10.953Z,99967.72
2023-04-10T00:07:39.594Z,99960.97
2023-04-10T00:10:09.016Z,99958.47
2023-04-10T00:12:38.177Z,99963.56
2023-04-10T00:15:10.061Z,99961.09
2023-04-10T00:17:38.759Z,99967.00
2023-04-10T00:20:09.513Z,99970.44
2023-04-10T00:22:38.326Z,99969.56
2023-04-10T00:25:08.110Z,99969.63
2023-04-10T00:27:36.846Z,99973.00
2023-04-10T00:30:08.607Z,99980.66
2023-04-10T00:32:37.277Z,99971.38
2023-04-10T00:35:07.109Z,99978.25
2023-04-10T00:37:35.856Z,99980.81
2023-04-10T00:40:05.140Z,99980.81
2023-04-10T00:42:33.939Z,99990.13
2023-04-10T00:45:02.626Z,99995.94
2023-04-10T00:47:33.395Z,99989.16
2023-04-10T00:50:02.376Z,99980.56
2023-04-10T00:52:31.067Z,99983.03
2023-04-10T00:54:59.819Z,99985.50
2023-04-10T00:57:28.690Z,99983.66
2023-04-10T00:59:57.913Z,99986.09
2023-04-10T01:02:27.259Z,99988.47
2023-04-10T01:04:57.481Z,99989.22
2023-04-10T01:07:39.966Z,99993.34
2023-04-10T01:10:19.492Z,99995.84
2023-04-10T01:13:01.011Z,99983.06
2023-04-10T01:15:31.902Z,99984.88
2023-04-10T01:18:06.175Z,99984.88
2023-04-10T01:20:41.308Z,99979.09
2023-04-10T01:23:53.472Z,99982.63
2023-04-10T01:26:53.143Z,99971.69
2023-04-10T01:29:25.275Z,99968.31
2023-04-10T01:31:59.181Z,99980.22
2023-04-10T01:34:34.121Z,99965.09
2023-04-10T01:37:06.663Z,99977.91
2023-04-10T01:39:41.359Z,99979.69
2023-04-10T01:42:12.484Z,99989.16
2023-04-10T01:44:47.969Z,99981.63
2023-04-10T01:47:18.327Z,99993.66
2023-04-10T01:49:49.070Z,99981.94
2023-04-10T01:52:19.354Z,99976.94
2023-04-10T01:54:54.604Z,99976.09
2023-04-10T01:57:32.857Z,99979.63
2023-04-10T02:00:03.222Z,99991.63
2023-04-10T02:02:33.205Z,99985.72
2023-04-10T02:05:02.537Z,99995.06
2023-04-10T02:07:38.061Z,99985.75
2023-04-10T02:10:16.763Z,99976.50
2023-04-10T02:12:53.829Z,99977.47
2023-04-10T02:15:29.269Z,99973.34
2023-04-10T02:18:00.373Z,99969.28
2023-04-10T02:20:29.068Z,99971.91
2023-04-10T02:23:00.013Z,99963.44
2023-04-10T02:25:29.028Z,99962.63
2023-04-10T02:27:57.702Z,99960.97
2023-04-10T02:30:27.769Z,99962.69
2023-04-10T02:32:56.757Z,99949.19
2023-04-10T02:35:25.623Z,99957.75
2023-04-10T02:37:54.460Z,99947.63
2023-04-10T02:40:23.643Z,99942.50
2023-04-10T02:43:04.615Z,99948.63
2023-04-10T02:45:34.800Z,99945.31
2023-04-10T02:48:04.062Z,99944.50
2023-04-10T02:50:32.841Z,99947.13
2023-04-10T02:53:02.406Z,99935.25
2023-04-10T02:55:31.279Z,99940.44
2023-04-10T02:57:59.914Z,99932.94
2023-04-10T03:00:29.086Z,99934.66
2023-04-10T03:03:15.517Z,99938.09
2023-04-10T03:05:49.939Z,99930.47
2023-04-10T03:08:22.745Z,99938.94
2023-04-10T03:10:52.027Z,99934.75
2023-04-10T03:13:20.737Z,99929.66
2023-04-10T03:15:49.372Z,99930.53
2023-04-10T03:18:19.434Z,99925.53
2023-04-10T03:20:50.896Z,99929.81
2023-04-10T03:23:22.493Z,99926.41
2023-04-10T03:25:55.064Z,99923.06
2023-04-10T03:28:27.890Z,99917.13
2023-04-10T03:30:57.282Z,99915.50
2023-04-10T03:33:27.465Z,99913.84
2023-04-10T03:35:57.337Z,99906.19
2023-04-10T03:38:26.088Z,99907.09
2023-04-10T03:40:54.958Z,99908.81
2023-04-10T03:43:26.716Z,99907.09
2023-04-10T03:45:55.396Z,99902.84
2023-04-10T03:48:28.479Z,99891.78
2023-04-10T03:50:57.630Z,99890.09
2023-04-10T03:53:26.549Z,99883.25
2023-04-10T03:55:56.212Z,99895.09
2023-04-10T03:58:26.590Z,99894.25
2023-04-10T04:00:57.505Z,99885.00
2023-04-10T04:03:36.167Z,99891.78
2023-04-10T04:06:28.211Z,99895.22
2023-04-10T04:09:17.916Z,99893.63
2023-04-10T04:11:58.832Z,99897.88
2023-04-10T04:14:46.172Z,99899.59
2023-04-10T04:17:23.621Z,99902.16
2023-04-10T04:20:01.373Z,99896.25
2023-04-10T04:22:59.255Z,99899.59
2023-04-10T04:25:44.086Z,99902.16
2023-04-10T04:28:31.241Z,99898.72
2023-04-10T04:31:22.466Z,99897.06
2023-04-10T04:34:09.925Z,99891.94
2023-04-10T04:36:40.039Z,99893.63
2023-04-10T04:39:37.887Z,99902.16
2023-04-10T04:42:26.518Z,99897.06
2023-04-10T04:45:24.881Z,99901.25
2023-04-10T04:48:19.475Z,99908.91
2023-04-10T04:51:07.820Z,99908.91
2023-04-10T04:53:46.028Z,99907.16
2023-04-10T04:56:43.585Z,99907.09
2023-04-10T04:59:41.137Z,99913.03
2023-04-10T05:02:28.401Z,99911.28
2023-04-10T05:05:05.533Z,99913.84
2023-04-10T05:07:56.991Z,99908.75
2023-04-10T05:10:53.509Z,99904.47
2023-04-10T05:13:41.030Z,99913.84
2023-04-10T05:16:35.929Z,99905.28
2023-04-10T05:19:23.016Z,99907.84
2023-04-10T05:21:51.650Z,99910.41
2023-04-10T05:24:46.448Z,99906.91
2023-04-10T05:27:19.510Z,99907.75
2023-04-10T05:30:03.735Z,99914.44
2023-04-10T05:33:07.827Z,99916.97
2023-04-10T05:36:04.063Z,99920.34
2023-04-10T05:38:40.006Z,99919.38
2023-04-10T05:41:36.293Z,99910.75
2023-04-10T05:44:25.250Z,99913.22
2023-04-10T05:47:02.699Z,99917.34
2023-04-10T05:49:40.460Z,99921.47
2023-04-10T05:52:38.380Z,99923.13
2023-04-10T05:55:25.496Z,99922.22
2023-04-10T05:58:13.367Z,99928.06
2023-04-10T06:01:02.070Z,99924.63
2023-04-10T06:03:57.747Z,99930.38
2023-04-10T06:06:27.895Z,99920.88
2023-04-10T06:08:58.004Z,99930.81
2023-04-10T06:11:27.345Z,99932.31
2023-04-10T06:13:57.674Z,99927.81
2023-04-10T06:16:35.082Z,99914.84
2023-04-10T06:19:03.851Z,99912.06
2023-04-10T06:21:32.949Z,99911.00
2023-04-10T06:24:01.619Z,99910.78
2023-04-10T06:26:30.382Z,99901.25
2023-04-10T06:28:59.260Z,99900.09
2023-04-10T06:31:27.960Z,99892.28
2023-04-10T06:33:58.666Z,99898.66
2023-04-10T06:36:30.230Z,99902.69
2023-04-10T06:39:04.068Z,99894.78
2023-04-10T06:41:32.655Z,99891.09
2023-04-10T06:44:14.908Z,99890.94
2023-04-10T06:46:43.598Z,99884.84
2023-04-10T06:49:13.681Z,99889.78
2023-04-10T06:51:42.333Z,99877.75
2023-04-10T06:54:10.963Z,99898.03
2023-04-10T06:56:39.536Z,99894.31
2023-04-10T06:59:10.597Z,99889.03
2023-04-10T07:01:39.261Z,99883.69
2023-04-10T07:04:08.372Z,99887.81
2023-04-10T07:06:38.408Z,99885.91
2023-04-10T07:09:07.011Z,99890.03
2023-04-10T07:11:35.968Z,99883.94
2023-04-10T07:14:04.612Z,99880.38
2023-04-10T07:16:33.270Z,99889.53
2023-04-10T07:19:02.015Z,99892.75
2023-04-10T07:21:30.724Z,99892.56
2023-04-10T07:24:00.679Z,99894.94
2023-04-10T07:26:29.382Z,99895.53
2023-04-10T07:28:58.013Z,99885.13
2023-04-10T07:31:26.787Z,99893.34
2023-04-10T07:33:55.443Z,99881.16
2023-04-10T07:36:24.161Z,99886.91
2023-04-10T07:38:52.952Z,99885.75
2023-04-10T07:41:24.144Z,99889.69
2023-04-10T07:43:52.858Z,99879.22
2023-04-10T07:46:21.664Z,99875.59
2023-04-10T07:48:50.821Z,99876.16
2023-04-10T07:51:19.425Z,99875.97
2023-04-10T07:53:48.215Z,99872.34
2023-04-10T07:56:18.337Z,99874.63
2023-04-10T07:58:49.484Z,99866.69
2023-04-10T08:01:18.133Z,99861.41
2023-04-10T08:03:48.006Z,99865.25
2023-04-10T08:06:16.978Z,99853.00
2023-04-10T08:08:45.750Z,99855.22
2023-04-10T08:11:27.627Z,99868.47
2023-04-10T08:14:01.798Z,99866.56
2023-04-10T08:16:33.312Z,99861.97
2023-04-10T08:19:03.468Z,99866.81
2023-04-10T08:21:33.165Z,99860.59
2023-04-10T08:24:03.373Z,99865.44
2023-04-10T08:26:34.226Z,99861.78
2023-04-10T08:29:04.261Z,99865.78
2023-04-10T08:31:33.057Z,99862.03
2023-04-10T08:34:01.719Z,99860.88
2023-04-10T08:36:31.523Z,99856.38
2023-04-10T08:39:00.788Z,99857.91
2023-04-10T08:41:29.525Z,99842.31
2023-04-10T08:43:58.903Z,99845.47
2023-04-10T08:46:30.608Z,99847.84
2023-04-10T08:49:03.689Z,99834.00
2023-04-10T08:51:38.595Z,99837.25
2023-04-10T08:54:09.695Z,99826.91
2023-04-10T08:56:41.087Z,99830.22
2023-04-10T08:59:10.410Z,99825.59
2023-04-10T09:01:41.848Z,99817.66
2023-04-10T09:04:14.010Z,99824.03
2023-04-10T09:06:42.704Z,99818.53
2023-04-10T09:09:11.404Z,99811.19
2023-04-10T09:12:04.159Z,99805.38
2023-04-10T09:14:35.098Z,99810.41
2023-04-10T09:17:17.758Z,99803.06
2023-04-10T09:19:48.687Z,99806.97
2023-04-10T09:22:17.962Z,99799.72
2023-04-10T09:24:48.783Z,99796.63
2023-04-10T09:27:32.541Z,99786.66
2023-04-10T09:30:05.702Z,99785.22
2023-04-10T09:32:41.778Z,99784.75
2023-04-10T09:35:12.306Z,99779.50
2023-04-10T09:37:43.487Z,99776.03
2023-04-10T09:40:23.982Z,99779.97
2023-04-10T09:42:53.762Z,99763.66
2023-04-10T09:45:23.106Z,99765.91
2023-04-10T09:48:08.487Z,99763.25
2023-04-10T09:50:40.219Z,99767.59
2023-04-10T09:53:10.373Z,99747.19
2023-04-10T09:55:39.262Z,99747.28
2023-04-10T09:58:08.693Z,99745.66
2023-04-10T10:00:43.007Z,99736.28
2023-04-10T10:03:16.243Z,99729.28
2023-04-10T10:05:46.717Z,99726.00
2023-04-10T10:08:16.980Z,99725.31
2023-04-10T10:10:49.169Z,99715.16
2023-04-10T10:13:22.186Z,99711.97
2023-04-10T10:15:59.505Z,99714.91
2023-04-10T10:18:41.572Z,99717.03
2023-04-10T10:21:11.137Z,99716.56
2023-04-10T10:23:39.971Z,99715.63
2023-04-10T10:26:11.302Z,99720.38
2023-04-10T10:28:42.224Z,99709.63
2023-04-10T10:31:11.772Z,99701.91
2023-04-10T10:33:42.427Z,99708.34
2023-04-10T10:36:14.064Z,99697.00
2023-04-10T10:38:57.463Z,99693.41
2023-04-10T10:41:34.418Z,99696.78
2023-04-10T10:44:12.711Z,99686.59
2023-04-10T10:46:50.288Z,99688.56
2023-04-10T10:49:20.604Z,99680.28
2023-04-10T10:51:52.025Z,99687.53
2023-04-10T10:54:33.630Z,99687.06
2023-04-10T10:57:03.246Z,99678.19
2023-04-10T10:59:57.815Z,99676.19
2023-04-10T11:02:26.920Z,99669.16
2023-04-10T11:04:56.953Z,99664.59
2023-04-10T11:08:09.269Z,99671.34
2023-04-10T11:11:07.152Z,99670.41
2023-04-10T11:13:37.038Z,99677.75
2023-04-10T11:16:07.932Z,99659.41
2023-04-10T11:19:15.823Z,99656.47
2023-04-10T11:22:08.253Z,99653.41
2023-04-10T11:24:58.356Z,99653.59
2023-04-10T11:27:46.318Z,99652.88
2023-04-10T11:30:32.480Z,99651.34
2023-04-10T11:33:02.252Z,99642.25
2023-04-10T11:35:32.650Z,99617.50
2023-04-10T11:38:17.287Z,99614.13
2023-04-10T11:41:02.572Z,99603.84
2023-04-10T11:43:32.350Z,99612.47
2023-04-10T11:46:07.576Z,99599.63
2023-04-10T11:48:38.060Z,99604.66
2023-04-10T11:51:11.680Z,99591.81
2023-04-10T11:53:42.729Z,99589.25
2023-04-10T11:56:19.340Z,99594.38
2023-04-10T11:58:53.101Z,99584.13
2023-04-10T12:01:23.899Z,99581.56
2023-04-10T12:03:52.958Z,99573.75
2023-04-10T12:06:22.229Z,99576.22
2023-04-10T12:08:52.786Z,99583.78
2023-04-10T12:11:23.875Z,99570.97
2023-04-10T12:13:54.945Z,99563.25
2023-04-10T12:16:24.521Z,99566.75
2023-04-10T12:18:53.938Z,99565.03
2023-04-10T12:21:23.207Z,99562.34
2023-04-10T12:23:53.267Z,99570.16
2023-04-10T12:26:22.528Z,99564.06
2023-04-10T12:28:57.504Z,99553.78
2023-04-10T12:31:30.647Z,99548.66
2023-04-10T12:34:00.180Z,99541.69
2023-04-10T12:36:30.372Z,99551.94
2023-04-10T12:39:01.703Z,99536.53
2023-04-10T12:41:33.053Z,99535.69
2023-04-10T12:44:12.993Z,99530.47
2023-04-10T12:46:44.549Z,99527.06
2023-04-10T12:49:15.519Z,99526.16
2023-04-10T12:51:49.065Z,99527.91
2023-04-10T12:54:33.564Z,99514.97
2023-04-10T12:57:04.074Z,99514.97
2023-04-10T12:59:33.715Z,99514.13
2023-04-10T13:02:02.652Z,99518.34
2023-04-10T13:04:33.267Z,99506.31
2023-04-10T13:07:02.240Z,99518.22
2023-04-10T13:09:32.378Z,99501.06
2023-04-10T13:12:01.715Z,99501.00
2023-04-10T13:14:30.607Z,99492.44
2023-04-10T13:16:59.246Z,99489.75
2023-04-10T13:19:27.936Z,99487.09
2023-04-10T13:21:56.541Z,99479.41
2023-04-10T13:24:25.283Z,99492.91
2023-04-10T13:26:57.197Z,99483.50
2023-04-10T13:29:26.068Z,99478.22
2023-04-10T13:31:54.778Z,99476.47
2023-04-10T13:34:23.672Z,99476.34
2023-04-10T13:36:52.400Z,99469.56
2023-04-10T13:39:21.135Z,99462.69
2023-04-10T13:41:49.759Z,99449.88
2023-04-10T13:44:19.828Z,99455.81
2023-04-10T13:46:48.563Z,99449.75
2023-04-10T13:49:18.002Z,99444.59
2023-04-10T13:51:47.278Z,99442.03
2023-04-10T13:54:17.114Z,99438.66
2023-04-10T13:56:46.627Z,99433.53
2023-04-10T13:59:15.676Z,99430.00
2023-04-10T14:01:46.625Z,99429.19
2023-04-10T14:04:17.054Z,99428.41
2023-04-10T14:06:45.716Z,99418.94
2023-04-10T14:09:14.401Z,99414.59
2023-04-10T14:11:43.066Z,99407.59
2023-04-10T14:14:11.695Z,99417.88
2023-04-10T14:16:40.431Z,99420.31
2023-04-10T14:19:10.559Z,99408.28
2023-04-10T14:21:40.560Z,99411.69
2023-04-10T14:24:09.251Z,99404.00
2023-04-10T14:26:37.863Z,99408.16
2023-04-10T14:29:08.679Z,99391.81
2023-04-10T14:31:50.649Z,99394.28
2023-04-10T14:34:28.133Z,99380.63
2023-04-10T14:36:56.747Z,99375.50
2023-04-10T14:39:25.927Z,99375.50
2023-04-10T14:41:54.684Z,99370.34
2023-04-10T14:44:23.360Z,99370.34
2023-04-10T14:46:52.094Z,99373.03
2023-04-10T14:49:20.703Z,99367.06
2023-04-10T14:51:50.713Z,99367.06
2023-04-10T14:54:21.884Z,99350.06
2023-04-10T14:56:51.142Z,99344.09
2023-04-10T14:59:19.999Z,99344.91
2023-04-10T15:01:48.773Z,99332.19
2023-04-10T15:04:17.733Z,99332.28
2023-04-10T15:06:46.421Z,99333.94
2023-04-10T15:09:16.424Z,99319.47
2023-04-10T15:11:45.125Z,99315.97
2023-04-10T15:14:13.793Z,99315.28
2023-04-10T15:16:43.071Z,99318.66
2023-04-10T15:19:11.728Z,99307.59
2023-04-10T15:21:41.380Z,99300.69
2023-04-10T15:24:10.019Z,99294.75
2023-04-10T15:26:46.110Z,99288.78
2023-04-10T15:29:15.210Z,99283.75
2023-04-10T15:31:43.947Z,99281.06
2023-04-10T15:34:12.608Z,99284.59
2023-04-10T15:36:41.271Z,99274.41
2023-04-10T15:39:10.150Z,99273.50
2023-04-10T15:41:40.639Z,99271.84
2023-04-10T15:44:09.497Z,99279.56
2023-04-10T15:46:38.312Z,99277.00
2023-04-10T15:49:07.097Z,99262.41
2023-04-10T15:51:35.775Z,99272.69
2023-04-10T15:54:05.525Z,99264.97
2023-04-10T15:56:34.535Z,99263.34
2023-04-10T15:59:04.823Z,99251.31
2023-04-10T16:01:33.531Z,99255.50
2023-04-10T16:04:02.264Z,99245.25
2023-04-10T16:06:31.327Z,99222.13
2023-04-10T16:09:00.034Z,99217.00
2023-04-10T16:11:28.691Z,99207.56
2023-04-10T16:13:57.566Z,99205.94
2023-04-10T16:16:29.110Z,99199.97
2023-04-10T16:18:59.798Z,99196.47
2023-04-10T16:21:29.884Z,99194.00
2023-04-10T16:23:59.027Z,99193.22
2023-04-10T16:26:27.667Z,99187.25
2023-04-10T16:28:56.589Z,99194.13
2023-04-10T16:31:25.755Z,99196.72
2023-04-10T16:33:56.473Z,99192.50
2023-04-10T16:36:25.212Z,99198.56
2023-04-10T16:38:54.033Z,99196.84
2023-04-10T16:41:22.910Z,99193.44
2023-04-10T16:43:51.523Z,99194.28
2023-04-10T16:46:21.725Z,99192.63
2023-04-10T16:48:51.286Z,99200.34
2023-04-10T16:51:21.285Z,99195.34
2023-04-10T16:53:49.950Z,99197.91
2023-04-10T16:56:18.503Z,99188.56
2023-04-10T16:58:47.683Z,99192.88
2023-04-10T17:01:21.693Z,99183.56
2023-04-10T17:03:50.418Z,99183.66
2023-04-10T17:06:20.777Z,99187.94
2023-04-10T17:08:49.719Z,99182.00
2023-04-10T17:11:18.498Z,99171.75
2023-04-10T17:13:48.110Z,99157.25
2023-04-10T17:16:16.857Z,99156.47
2023-04-10T17:18:45.633Z,99158.22
2023-04-10T17:21:15.400Z,99161.72
2023-04-10T17:23:45.992Z,99160.88
2023-04-10T17:26:15.885Z,99155.75
2023-04-10T17:28:46.499Z,99151.72
2023-04-10T17:31:16.070Z,99146.56
2023-04-10T17:33:45.190Z,99146.56
2023-04-10T17:36:14.674Z,99145.75
2023-04-10T17:38:44.918Z,99132.25
2023-04-10T17:41:16.693Z,99136.53
2023-04-10T17:43:45.371Z,99130.59
2023-04-10T17:46:20.229Z,99116.94
2023-04-10T17:48:48.839Z,99110.19
2023-04-10T17:51:17.528Z,99107.63
2023-04-10T17:53:47.544Z,99109.38
2023-04-10T17:56:20.845Z,99118.13
2023-04-10T17:58:49.751Z,99120.69
2023-04-10T18:01:27.581Z,99124.34
2023-04-10T18:03:56.407Z,99120.94
2023-04-10T18:06:25.183Z,99122.72
2023-04-10T18:08:55.965Z,99118.63
2023-04-10T18:11:25.425Z,99126.34
2023-04-10T18:13:54.092Z,99125.53
2023-04-10T18:16:22.805Z,99126.47
2023-04-10T18:18:51.447Z,99130.75
2023-04-10T18:21:20.087Z,99147.91
2023-04-10T18:23:48.678Z,99140.34
2023-04-10T18:26:20.835Z,99150.63
2023-04-10T18:28:49.929Z,99150.75
2023-04-10T18:31:19.179Z,99153.44
2023-04-10T18:33:53.341Z,99143.97
2023-04-10T18:36:28.774Z,99140.69
2023-04-10T18:38:58.168Z,99138.03
2023-04-10T18:41:28.257Z,99139.88
2023-04-10T18:44:05.094Z,99139.88
2023-04-10T18:46:34.451Z,99139.09
2023-04-10T18:49:03.639Z,99143.38
2023-04-10T18:51:35.596Z,99128.81
2023-04-10T18:54:04.442Z,99122.06
2023-04-10T18:56:35.827Z,99125.56
2023-04-10T18:59:05.197Z,99126.38
2023-04-10T19:01:34.050Z,99129.88
2023-04-10T19:04:02.950Z,99141.78
2023-04-10T19:06:32.481Z,99145.28
2023-04-10T19:09:01.227Z,99145.28
2023-04-10T19:11:30.481Z,99140.16
2023-04-10T19:14:00.538Z,99138.50
2023-04-10T19:16:29.122Z,99153.09
2023-04-10T19:18:57.889Z,99156.47
2023-04-10T19:21:27.573Z,99138.50
2023-04-10T19:23:56.247Z,99132.56
2023-04-10T19:26:24.920Z,99127.44
2023-04-10T19:28:54.070Z,99130.13
2023-04-10T19:31:27.669Z,99130.13
2023-04-10T19:33:57.145Z,99135.28
2023-04-10T19:36:27.172Z,99134.44
2023-04-10T19:38:57.472Z,99145.53
2023-04-10T19:41:26.506Z,99137.84
2023-04-10T19:43:55.299Z,99140.41
2023-04-10T19:46:25.616Z,99130.13
2023-04-10T19:48:54.841Z,99128.50
2023-04-10T19:51:23.615Z,99133.63
2023-04-10T19:53:52.236Z,99117.41
2023-04-10T19:56:21.201Z,99111.34
2023-04-10T19:58:49.854Z,99109.69
2023-04-10T20:01:18.576Z,99108.78
2023-04-10T20:03:48.832Z,99107.97
2023-04-10T20:06:17.801Z,99104.47
2023-04-10T20:08:46.654Z,99099.44
2023-04-10T20:11:15.303Z,99099.34
2023-04-10T20:13:43.958Z,99091.66
2023-04-10T20:16:12.589Z,99082.19
2023-04-10T20:18:41.384Z,99085.56
2023-04-10T20:21:11.334Z,99074.50
2023-04-10T20:23:40.040Z,99054.78
2023-04-10T20:26:08.733Z,99055.59
2023-04-10T20:28:37.458Z,99058.03
2023-04-10T20:31:06.249Z,99055.59
2023-04-10T20:33:35.267Z,99052.06
2023-04-10T20:36:04.375Z,99037.50
2023-04-10T20:38:34.343Z,99035.88
2023-04-10T20:41:03.277Z,99030.75
2023-04-10T20:43:33.101Z,99042.66
2023-04-10T20:46:05.270Z,99049.50
2023-04-10T20:48:34.187Z,99053.84
2023-04-10T20:51:02.976Z,99036.69
2023-04-10T20:53:32.995Z,99025.63
2023-04-10T20:56:03.042Z,99015.34
2023-04-10T20:58:34.118Z,99018.72
2023-04-10T21:01:02.853Z,99021.28
2023-04-10T21:03:32.149Z,99015.34
2023-04-10T21:06:00.954Z,99005.09
2023-04-10T21:08:29.609Z,99015.34
2023-04-10T21:11:00.058Z,99025.63
2023-04-10T21:13:28.761Z,99032.38
2023-04-10T21:15:57.584Z,99020.47
2023-04-10T21:18:26.310Z,99023.75
2023-04-10T21:20:54.885Z,99006.72
2023-04-10T21:23:23.534Z,99004.97
2023-04-10T21:25:53.771Z,99006.72
2023-04-10T21:28:23.917Z,99000.75
2023-04-10T21:30:52.536Z,99001.59
2023-04-10T21:33:21.247Z,98992.13
2023-04-10T21:35:49.881Z,98970.81
2023-04-10T21:38:18.539Z,98975.94
2023-04-10T21:40:52.314Z,98981.88
2023-04-10T21:43:21.487Z,98992.25
2023-04-10T21:45:51.567Z,98988.88
2023-04-10T21:48:20.712Z,98983.75
2023-04-10T21:50:50.898Z,98972.66
2023-04-10T21:53:19.608Z,98963.25
2023-04-10T21:55:48.252Z,98929.88
2023-04-10T21:58:17.020Z,98897.47
2023-04-10T22:00:47.427Z,98888.00
2023-04-10T22:03:20.171Z,98904.34
2023-04-10T22:05:50.330Z,98896.75
2023-04-10T22:08:20.263Z,98899.22
2023-04-10T22:10:49.176Z,98907.84
2023-04-10T22:13:29.732Z,98902.72
2023-04-10T22:15:59.393Z,98889.19
2023-04-10T22:18:29.471Z,98893.53
2023-04-10T22:20:58.090Z,98893.53
2023-04-10T22:23:26.809Z,98874.78
2023-04-10T22:25:55.542Z,98861.94
2023-04-10T22:28:24.135Z,98864.50
2023-04-10T22:30:52.806Z,98871.38
2023-04-10T22:33:21.476Z,98873.94
2023-04-10T22:35:53.215Z,98880.84
2023-04-10T22:38:21.878Z,98865.44
2023-04-10T22:40:50.459Z,98880.13
2023-04-10T22:43:19.088Z,98894.72
2023-04-10T22:45:47.991Z,98894.72
2023-04-10T22:48:16.721Z,98890.41
2023-04-10T22:50:45.414Z,98897.28
2023-04-10T22:53:15.435Z,98898.09
2023-04-10T22:55:44.085Z,98910.25
2023-04-10T22:58:12.971Z,98901.59
2023-04-10T23:00:41.631Z,98907.81
2023-04-10T23:03:10.443Z,98911.31
2023-04-10T23:05:39.179Z,98937.09
2023-04-10T23:08:07.744Z,98950.16
2023-04-10T23:10:37.785Z,98954.59
2023-04-10T23:13:06.419Z,98965.91
2023-04-10T23:15:35.581Z,98970.47
2023-04-10T23:18:04.234Z,98976.78
2023-04-10T23:20:32.952Z,98969.47
2023-04-10T23:23:01.544Z,98968.91
2023-04-10T23:25:30.330Z,98977.78
2023-04-10T23:28:00.285Z,98975.47
2023-04-10T23:30:29.103Z,98973.16
2023-04-10T23:32:57.912Z,98967.34
2023-04-10T23:35:28.146Z,98970.16
2023-04-10T23:37:57.733Z,98960.16
2023-04-10T23:40:26.345Z,98958.78
2023-04-10T23:42:54.989Z,98959.00
2023-04-10T23:45:24.930Z,98954.09
2023-04-10T23:47:53.669Z,98933.84
2023-04-10T23:50:22.375Z,98939.19
2023-04-10T23:52:51.397Z,98931.75
2023-04-10T23:55:21.604Z,98925.94
2023-04-10T23:57:50.230Z,98912.44
